createdAt,value
2018-01-01T00:01:46.675Z,27.03
2018-01-01T00:04:14.232Z,17.17
2018-01-01T00:06:41.792Z,12.27
2018-01-01T00:09:09.303Z,9.80
2018-01-01T00:11:36.832Z,9.73
2018-01-01T00:14:04.339Z,9.63
2018-01-01T00:16:31.912Z,7.80
2018-01-01T00:18:59.408Z,7.10
2018-01-01T00:21:27.678Z,6.97
2018-01-01T00:23:55.224Z,7.00
2018-01-01T00:26:22.733Z,7.93
2018-01-01T00:28:50.251Z,6.40
2018-01-01T00:31:18.515Z,7.50
2018-01-01T00:33:46.083Z,7.77
2018-01-01T00:36:13.607Z,6.90
2018-01-01T00:38:41.112Z,6.10
2018-01-01T00:41:09.416Z,6.03
2018-01-01T00:43:36.917Z,6.23
2018-01-01T00:46:04.459Z,5.93
2018-01-01T00:48:31.971Z,5.83
2018-01-01T00:51:00.272Z,5.20
2018-01-01T00:53:27.808Z,6.17
2018-01-01T00:55:56.072Z,5.77
2018-01-01T00:58:24.364Z,5.20
2018-01-01T01:00:51.855Z,4.77
2018-01-01T01:03:19.387Z,3.70
2018-01-01T01:05:46.911Z,2.50
2018-01-01T01:08:14.457Z,2.50
2018-01-01T01:10:41.965Z,2.10
2018-01-01T01:13:09.467Z,2.03
2018-01-01T01:15:36.972Z,2.20
2018-01-01T01:18:04.508Z,1.90
2018-01-01T01:20:32.789Z,1.50
2018-01-01T01:23:01.146Z,2.03
2018-01-01T01:25:28.645Z,1.40
2018-01-01T01:27:56.208Z,1.50
2018-01-01T01:30:23.725Z,1.50
2018-01-01T01:32:52.004Z,1.40
2018-01-01T01:35:19.524Z,1.30
2018-01-01T01:37:47.033Z,1.23
2018-01-01T01:40:14.584Z,1.50
2018-01-01T01:42:42.856Z,1.50
2018-01-01T01:45:11.133Z,1.20
2018-01-01T01:47:39.463Z,1.10
2018-01-01T01:50:06.958Z,1.30
2018-01-01T01:52:35.403Z,1.50
2018-01-01T01:55:02.911Z,1.80
2018-01-01T01:57:31.200Z,1.30
2018-01-01T01:59:58.694Z,1.40
2018-01-01T02:02:26.213Z,1.33
2018-01-01T02:04:53.735Z,1.10
2018-01-01T02:07:21.248Z,1.50
2018-01-01T02:09:48.793Z,1.10
2018-01-01T02:12:16.296Z,1.40
2018-01-01T02:14:43.836Z,1.20
2018-01-01T02:17:11.324Z,1.30
2018-01-01T02:19:38.869Z,1.40
2018-01-01T02:22:06.368Z,1.40
2018-01-01T02:24:33.876Z,1.87
2018-01-01T02:27:01.407Z,2.00
2018-01-01T02:29:28.911Z,1.47
2018-01-01T02:31:56.726Z,1.53
2018-01-01T02:34:24.226Z,1.43
2018-01-01T02:36:51.790Z,1.50
2018-01-01T02:39:19.358Z,1.60
2018-01-01T02:41:47.623Z,1.27
2018-01-01T02:44:15.151Z,1.37
2018-01-01T02:46:42.655Z,1.07
2018-01-01T02:49:10.938Z,1.57
2018-01-01T02:51:39.200Z,1.60
2018-01-01T02:54:07.600Z,1.30
2018-01-01T02:56:35.104Z,1.30
2018-01-01T02:59:02.594Z,1.13
2018-01-01T03:01:30.891Z,1.40
2018-01-01T03:03:58.405Z,1.57
2018-01-01T03:06:25.952Z,1.20
2018-01-01T03:08:53.471Z,1.10
2018-01-01T03:11:20.996Z,1.13
2018-01-01T03:13:48.485Z,1.23
2018-01-01T03:16:16.023Z,1.13
2018-01-01T03:18:44.276Z,1.10
2018-01-01T03:21:11.769Z,1.07
2018-01-01T03:23:39.288Z,1.10
2018-01-01T03:26:06.780Z,1.03
2018-01-01T03:28:34.305Z,0.97
2018-01-01T03:31:01.816Z,1.37
2018-01-01T03:33:29.340Z,1.23
2018-01-01T03:35:57.637Z,1.20
2018-01-01T03:38:25.132Z,1.53
2018-01-01T03:40:52.648Z,1.00
2018-01-01T03:43:20.182Z,1.40
2018-01-01T03:45:48.523Z,1.43
2018-01-01T03:48:16.044Z,1.17
2018-01-01T03:50:43.556Z,1.20
2018-01-01T03:53:11.100Z,2.00
2018-01-01T03:55:38.608Z,1.00
2018-01-01T03:58:06.095Z,0.97
2018-01-01T04:00:33.610Z,1.33
2018-01-01T04:03:01.871Z,1.23
2018-01-01T04:05:29.401Z,1.17
2018-01-01T04:07:56.891Z,0.90
2018-01-01T04:10:24.420Z,1.40
2018-01-01T04:12:51.945Z,1.00
2018-01-01T04:15:19.471Z,1.10
2018-01-01T04:17:47.746Z,1.37
2018-01-01T04:20:16.026Z,1.30
2018-01-01T04:22:44.345Z,1.47
2018-01-01T04:25:11.835Z,1.27
2018-01-01T04:27:39.320Z,0.90
2018-01-01T04:30:07.600Z,1.20
2018-01-01T04:32:35.098Z,1.40
2018-01-01T04:35:02.627Z,1.20
2018-01-01T04:37:30.118Z,1.30
2018-01-01T04:39:57.662Z,1.73
2018-01-01T04:42:25.151Z,1.20
2018-01-01T04:44:53.430Z,0.90
2018-01-01T04:47:20.948Z,1.43
2018-01-01T04:49:48.443Z,1.10
2018-01-01T04:52:15.955Z,1.10
2018-01-01T04:54:43.443Z,1.10
2018-01-01T04:57:11.020Z,1.33
2018-01-01T04:59:38.507Z,1.50
2018-01-01T05:02:06.027Z,1.63
2018-01-01T05:04:33.555Z,1.00
2018-01-01T05:07:01.059Z,1.20
2018-01-01T05:09:29.353Z,1.43
2018-01-01T05:11:57.613Z,1.57
2018-01-01T05:14:25.907Z,1.30
2018-01-01T05:16:53.387Z,1.20
2018-01-01T05:19:20.895Z,1.00
2018-01-01T05:21:48.403Z,1.40
2018-01-01T05:24:15.892Z,1.40
2018-01-01T05:26:43.402Z,1.33
2018-01-01T05:29:10.904Z,1.30
2018-01-01T05:31:38.444Z,1.63
2018-01-01T05:34:05.938Z,1.60
2018-01-01T05:36:33.471Z,1.30
2018-01-01T05:39:01.035Z,1.60
2018-01-01T05:41:28.524Z,1.67
2018-01-01T05:43:56.776Z,1.40
2018-01-01T05:46:24.289Z,1.37
2018-01-01T05:48:51.804Z,1.50
2018-01-01T05:51:20.062Z,1.20
2018-01-01T05:53:47.568Z,2.07
2018-01-01T05:56:15.066Z,1.10
2018-01-01T05:58:42.632Z,1.37
2018-01-01T06:01:10.124Z,1.10
2018-01-01T06:03:38.376Z,1.57
2018-01-01T06:06:05.926Z,1.50
2018-01-01T06:08:33.416Z,1.13
2018-01-01T06:11:01.680Z,1.20
2018-01-01T06:13:29.971Z,1.10
2018-01-01T06:15:58.235Z,1.10
2018-01-01T06:18:26.504Z,1.10
2018-01-01T06:20:54.764Z,1.30
2018-01-01T06:23:22.328Z,1.20
2018-01-01T06:25:49.833Z,1.00
2018-01-01T06:28:17.324Z,1.10
2018-01-01T06:30:44.836Z,1.17
2018-01-01T06:33:12.319Z,1.20
2018-01-01T06:35:39.807Z,1.10
2018-01-01T06:38:08.856Z,1.20
2018-01-01T06:40:36.352Z,1.53
2018-01-01T06:43:03.912Z,2.13
2018-01-01T06:45:31.409Z,1.33
2018-01-01T06:47:58.932Z,0.90
2018-01-01T06:50:26.444Z,1.40
2018-01-01T06:52:53.992Z,1.30
2018-01-01T06:55:21.485Z,1.33
2018-01-01T06:57:48.975Z,1.13
2018-01-01T07:00:17.246Z,1.33
2018-01-01T07:02:45.557Z,1.27
2018-01-01T07:05:13.068Z,1.10
2018-01-01T07:07:40.563Z,1.20
2018-01-01T07:10:08.079Z,1.23
2018-01-01T07:12:35.612Z,1.30
2018-01-01T07:15:03.105Z,1.20
2018-01-01T07:17:31.395Z,1.10
2018-01-01T07:19:59.642Z,1.37
2018-01-01T07:22:27.168Z,1.70
2018-01-01T07:24:54.684Z,1.20
2018-01-01T07:27:22.936Z,1.30
2018-01-01T07:29:50.444Z,1.43
2018-01-01T07:32:17.935Z,1.10
2018-01-01T07:34:45.464Z,1.23
2018-01-01T07:37:12.964Z,1.40
2018-01-01T07:39:40.444Z,1.37
2018-01-01T07:42:08.740Z,2.00
2018-01-01T07:44:36.224Z,1.30
2018-01-01T07:47:03.725Z,2.13
2018-01-01T07:49:32.009Z,1.67
2018-01-01T07:52:00.272Z,1.37
2018-01-01T07:54:27.795Z,1.20
2018-01-01T07:56:55.287Z,1.30
2018-01-01T07:59:22.795Z,1.23
2018-01-01T08:01:50.408Z,1.37
2018-01-01T08:04:18.671Z,1.23
2018-01-01T08:06:46.187Z,1.40
2018-01-01T08:09:13.692Z,1.00
2018-01-01T08:11:41.211Z,1.20
2018-01-01T08:14:08.731Z,1.60
2018-01-01T08:16:37.005Z,1.37
2018-01-01T08:19:05.286Z,1.30
2018-01-01T08:21:32.780Z,1.17
2018-01-01T08:24:00.322Z,1.00
2018-01-01T08:26:27.846Z,1.10
2018-01-01T08:28:55.397Z,1.87
2018-01-01T08:31:23.689Z,1.10
2018-01-01T08:33:51.935Z,1.60
2018-01-01T08:36:19.449Z,1.37
2018-01-01T08:38:46.952Z,1.60
2018-01-01T08:41:14.468Z,1.50
2018-01-01T08:43:41.983Z,1.30
2018-01-01T08:46:10.244Z,1.23
2018-01-01T08:48:37.779Z,1.07
2018-01-01T08:51:05.276Z,1.10
2018-01-01T08:53:33.547Z,2.20
2018-01-01T08:56:01.845Z,1.30
2018-01-01T08:58:29.336Z,1.17
2018-01-01T09:00:56.881Z,1.80
2018-01-01T09:03:24.382Z,1.53
2018-01-01T09:05:51.935Z,1.33
2018-01-01T09:08:19.444Z,1.40
2018-01-01T09:10:46.988Z,1.83
2018-01-01T09:13:14.490Z,1.17
2018-01-01T09:15:42.169Z,1.07
2018-01-01T09:18:09.686Z,0.93
2018-01-01T09:20:37.187Z,1.30
2018-01-01T09:23:04.744Z,1.60
2018-01-01T09:25:32.249Z,1.47
2018-01-01T09:27:59.760Z,0.93
2018-01-01T09:30:27.280Z,1.13
2018-01-01T09:32:54.775Z,1.23
2018-01-01T09:35:23.097Z,1.07
2018-01-01T09:37:50.585Z,1.00
2018-01-01T09:40:18.104Z,1.07
2018-01-01T09:42:45.646Z,1.00
2018-01-01T09:45:13.930Z,1.20
2018-01-01T09:47:41.460Z,1.10
2018-01-01T09:50:09.732Z,1.20
2018-01-01T09:52:38.051Z,1.43
2018-01-01T09:55:05.553Z,1.37
2018-01-01T09:57:33.060Z,1.70
2018-01-01T10:00:00.602Z,1.23
2018-01-01T10:02:28.140Z,1.10
2018-01-01T10:04:55.705Z,1.67
2018-01-01T10:07:24.007Z,1.30
2018-01-01T10:09:51.568Z,1.50
2018-01-01T10:12:19.067Z,2.20
2018-01-01T10:14:46.608Z,1.43
2018-01-01T10:17:14.142Z,1.40
2018-01-01T10:19:41.686Z,1.33
2018-01-01T10:22:09.961Z,1.33
2018-01-01T10:24:38.219Z,1.00
2018-01-01T10:27:06.528Z,1.37
2018-01-01T10:29:34.036Z,1.70
2018-01-01T10:32:01.561Z,1.30
2018-01-01T10:34:29.043Z,1.47
2018-01-01T10:36:56.608Z,1.23
2018-01-01T10:39:24.105Z,0.90
2018-01-01T10:41:51.673Z,1.70
2018-01-01T10:44:19.177Z,1.10
2018-01-01T10:46:46.668Z,1.30
2018-01-01T10:49:14.953Z,1.20
2018-01-01T10:51:42.447Z,1.43
2018-01-01T10:54:09.988Z,1.43
2018-01-01T10:56:37.519Z,1.20
2018-01-01T10:59:05.774Z,1.20
2018-01-01T11:01:33.307Z,1.23
2018-01-01T11:04:00.816Z,1.20
2018-01-01T11:06:28.372Z,1.40
2018-01-01T11:08:56.657Z,1.40
2018-01-01T11:11:24.223Z,1.77
2018-01-01T11:13:51.721Z,1.47
2018-01-01T11:16:19.252Z,1.30
2018-01-01T11:18:46.764Z,1.17
2018-01-01T11:21:15.066Z,1.43
2018-01-01T11:23:42.599Z,1.40
2018-01-01T11:26:10.861Z,1.50
2018-01-01T11:28:38.372Z,1.30
2018-01-01T11:31:05.858Z,1.40
2018-01-01T11:33:33.394Z,1.40
2018-01-01T11:36:00.904Z,1.73
2018-01-01T11:38:29.219Z,1.40
2018-01-01T11:40:56.712Z,1.37
2018-01-01T11:43:24.231Z,1.33
2018-01-01T11:45:51.773Z,1.40
2018-01-01T11:48:19.278Z,1.43
2018-01-01T11:50:46.767Z,1.30
2018-01-01T11:53:15.057Z,1.17
2018-01-01T11:55:43.392Z,1.10
2018-01-01T11:58:11.674Z,1.80
2018-01-01T12:00:39.193Z,1.47
2018-01-01T12:03:06.739Z,1.70
2018-01-01T12:05:34.233Z,1.53
2018-01-01T12:08:01.732Z,1.47
2018-01-01T12:10:30.022Z,1.57
2018-01-01T12:12:57.563Z,1.50
2018-01-01T12:15:25.860Z,1.70
2018-01-01T12:17:53.374Z,1.80
2018-01-01T12:20:20.913Z,1.37
2018-01-01T12:22:48.422Z,1.60
2018-01-01T12:25:16.483Z,2.00
2018-01-01T12:27:44.750Z,2.10
2018-01-01T12:30:13.028Z,1.57
2018-01-01T12:32:41.307Z,2.00
2018-01-01T12:35:09.560Z,1.73
2018-01-01T12:37:37.096Z,1.30
2018-01-01T12:40:04.644Z,1.60
2018-01-01T12:42:32.155Z,1.10
2018-01-01T12:45:00.428Z,1.77
2018-01-01T12:47:28.712Z,1.80
2018-01-01T12:49:56.972Z,1.60
2018-01-01T12:52:25.268Z,1.63
2018-01-01T12:54:52.789Z,1.60
2018-01-01T12:57:21.084Z,1.40
2018-01-01T12:59:49.386Z,2.00
2018-01-01T13:02:16.932Z,1.73
2018-01-01T13:04:45.225Z,1.47
2018-01-01T13:07:12.746Z,1.40
2018-01-01T13:09:40.280Z,2.07
2018-01-01T13:12:07.862Z,1.67
2018-01-01T13:14:35.372Z,1.60
2018-01-01T13:17:02.878Z,1.47
2018-01-01T13:19:31.195Z,1.10
2018-01-01T13:21:58.763Z,2.07
2018-01-01T13:24:26.264Z,2.03
2018-01-01T13:26:53.780Z,2.37
2018-01-01T13:29:21.358Z,1.73
2018-01-01T13:31:48.898Z,1.40
2018-01-01T13:34:16.402Z,2.03
2018-01-01T13:36:43.931Z,1.37
2018-01-01T13:39:11.454Z,1.30
2018-01-01T13:41:39.007Z,1.20
2018-01-01T13:44:06.531Z,1.50
2018-01-01T13:46:34.056Z,1.70
2018-01-01T13:49:01.605Z,1.20
2018-01-01T13:51:29.148Z,1.37
2018-01-01T13:53:56.691Z,1.53
2018-01-01T13:56:24.210Z,1.47
2018-01-01T13:58:51.732Z,2.40
2018-01-01T14:01:19.240Z,1.53
2018-01-01T14:03:47.560Z,1.37
2018-01-01T14:06:15.061Z,2.13
2018-01-01T14:08:42.576Z,1.40
2018-01-01T14:11:10.136Z,1.80
2018-01-01T14:13:37.660Z,1.60
2018-01-01T14:16:05.937Z,1.30
2018-01-01T14:18:34.245Z,1.30
2018-01-01T14:21:01.738Z,1.37
2018-01-01T14:23:29.272Z,1.80
2018-01-01T14:25:56.796Z,1.53
2018-01-01T14:28:24.336Z,1.60
2018-01-01T14:30:52.591Z,1.53
2018-01-01T14:33:21.645Z,1.20
2018-01-01T14:35:49.184Z,1.40
2018-01-01T14:38:16.712Z,1.53
2018-01-01T14:40:44.251Z,1.90
2018-01-01T14:43:11.771Z,2.03
2018-01-01T14:45:39.280Z,1.53
2018-01-01T14:48:06.807Z,1.47
2018-01-01T14:50:34.336Z,1.40
2018-01-01T14:53:01.893Z,1.30
2018-01-01T14:55:29.383Z,1.27
2018-01-01T14:57:57.816Z,1.70
2018-01-01T15:00:25.378Z,1.30
2018-01-01T15:02:52.879Z,1.40
2018-01-01T15:05:20.396Z,1.60
2018-01-01T15:07:47.936Z,1.30
2018-01-01T15:10:16.242Z,1.33
2018-01-01T15:12:43.736Z,1.27
2018-01-01T15:15:11.297Z,1.57
2018-01-01T15:17:38.833Z,1.27
2018-01-01T15:20:06.341Z,1.40
2018-01-01T15:22:34.641Z,1.60
2018-01-01T15:25:02.160Z,1.40
2018-01-01T15:27:29.716Z,1.57
2018-01-01T15:29:57.238Z,1.57
2018-01-01T15:32:24.757Z,1.67
2018-01-01T15:34:53.069Z,1.60
2018-01-01T15:37:20.571Z,1.57
2018-01-01T15:39:48.917Z,1.67
2018-01-01T15:42:16.459Z,1.20
2018-01-01T15:44:44.003Z,1.60
2018-01-01T15:47:11.539Z,1.30
2018-01-01T15:49:39.812Z,1.33
2018-01-01T15:52:07.376Z,1.23
2018-01-01T15:54:34.876Z,1.90
2018-01-01T15:57:02.407Z,1.87
2018-01-01T15:59:29.961Z,2.47
2018-01-01T16:01:57.462Z,2.20
2018-01-01T16:04:24.990Z,1.73
2018-01-01T16:06:52.494Z,1.63
2018-01-01T16:09:20.062Z,1.43
2018-01-01T16:11:48.327Z,1.80
2018-01-01T16:14:15.832Z,1.53
2018-01-01T16:16:43.413Z,1.50
2018-01-01T16:19:10.971Z,1.83
2018-01-01T16:21:38.496Z,2.17
2018-01-01T16:24:06.015Z,2.63
2018-01-01T16:26:33.534Z,2.03
2018-01-01T16:29:01.051Z,1.97
2018-01-01T16:31:29.331Z,2.00
2018-01-01T16:33:57.632Z,3.20
2018-01-01T16:36:25.140Z,2.87
2018-01-01T16:38:54.178Z,1.63
2018-01-01T16:41:21.688Z,1.83
2018-01-01T16:43:49.218Z,1.63
2018-01-01T16:46:16.755Z,1.97
2018-01-01T16:48:44.275Z,2.27
2018-01-01T16:51:12.563Z,2.00
2018-01-01T16:53:40.835Z,1.60
2018-01-01T16:56:09.120Z,1.70
2018-01-01T16:58:36.623Z,1.60
2018-01-01T17:01:04.153Z,1.70
2018-01-01T17:03:31.656Z,1.30
2018-01-01T17:05:59.191Z,1.87
2018-01-01T17:08:26.699Z,2.07
2018-01-01T17:10:54.972Z,1.43
2018-01-01T17:13:23.305Z,1.70
2018-01-01T17:15:50.823Z,1.60
2018-01-01T17:18:18.330Z,1.57
2018-01-01T17:20:45.867Z,1.80
2018-01-01T17:23:13.359Z,1.60
2018-01-01T17:25:41.675Z,2.30
2018-01-01T17:28:09.193Z,1.30
2018-01-01T17:30:36.720Z,1.77
2018-01-01T17:33:04.263Z,1.90
2018-01-01T17:35:31.764Z,1.90
2018-01-01T17:37:59.293Z,2.00
2018-01-01T17:40:26.806Z,1.57
2018-01-01T17:42:54.369Z,1.70
2018-01-01T17:45:21.889Z,1.70
2018-01-01T17:47:49.392Z,2.00
2018-01-01T17:50:16.936Z,1.50
2018-01-01T17:52:45.222Z,1.80
2018-01-01T17:55:12.755Z,1.20
2018-01-01T17:57:41.068Z,1.10
2018-01-01T18:00:08.649Z,1.60
2018-01-01T18:02:36.173Z,1.50
2018-01-01T18:05:03.712Z,1.20
2018-01-01T18:07:31.979Z,1.10
2018-01-01T18:09:59.518Z,1.20
2018-01-01T18:12:27.032Z,1.40
2018-01-01T18:14:54.534Z,1.10
2018-01-01T18:17:22.050Z,1.70
2018-01-01T18:19:49.598Z,1.60
2018-01-01T18:22:17.167Z,1.20
2018-01-01T18:24:44.681Z,1.30
2018-01-01T18:27:12.968Z,1.00
2018-01-01T18:29:41.299Z,1.10
2018-01-01T18:32:08.877Z,1.03
2018-01-01T18:34:36.433Z,1.10
2018-01-01T18:37:04.720Z,0.90
2018-01-01T18:39:32.224Z,1.00
2018-01-01T18:41:59.747Z,1.30
2018-01-01T18:44:28.794Z,0.90
2018-01-01T18:46:56.325Z,1.00
2018-01-01T18:49:23.836Z,1.70
2018-01-01T18:51:51.362Z,1.10
2018-01-01T18:54:18.867Z,1.37
2018-01-01T18:56:47.227Z,0.90
2018-01-01T18:59:14.753Z,1.20
2018-01-01T19:01:42.267Z,1.20
2018-01-01T19:04:10.803Z,1.20
2018-01-01T19:06:38.388Z,1.93
2018-01-01T19:09:06.030Z,1.30
2018-01-01T19:11:33.674Z,1.00
2018-01-01T19:14:01.294Z,1.13
2018-01-01T19:16:29.649Z,1.40
2018-01-01T19:18:57.335Z,1.40
2018-01-01T19:21:25.709Z,1.53
2018-01-01T19:23:54.136Z,1.40
2018-01-01T19:26:21.789Z,1.20
2018-01-01T19:28:50.292Z,1.67
2018-01-01T19:31:17.957Z,1.33
2018-01-01T19:33:45.578Z,1.20
2018-01-01T19:36:13.347Z,1.10
2018-01-01T19:38:41.012Z,1.00
2018-01-01T19:41:08.665Z,1.10
2018-01-01T19:43:36.263Z,1.10
2018-01-01T19:46:03.871Z,1.20
2018-01-01T19:48:31.620Z,0.90
2018-01-01T19:51:00.001Z,1.00
2018-01-01T19:53:27.772Z,1.00
2018-01-01T19:55:55.380Z,0.90
2018-01-01T19:58:23.249Z,1.30
2018-01-01T20:00:50.880Z,1.00
2018-01-01T20:03:19.085Z,1.20
2018-01-01T20:05:46.770Z,0.90
2018-01-01T20:08:15.130Z,1.07
2018-01-01T20:10:42.736Z,0.90
2018-01-01T20:13:10.272Z,0.90
2018-01-01T20:15:37.802Z,0.90
2018-01-01T20:18:05.404Z,1.07
2018-01-01T20:20:32.928Z,0.90
2018-01-01T20:23:00.438Z,0.90
2018-01-01T20:25:28.118Z,0.77
2018-01-01T20:27:55.642Z,0.90
2018-01-01T20:30:23.201Z,1.10
2018-01-01T20:32:51.177Z,0.90
2018-01-01T20:35:18.721Z,0.90
2018-01-01T20:37:46.261Z,1.10
2018-01-01T20:40:14.586Z,1.00
2018-01-01T20:42:42.271Z,1.10
2018-01-01T20:45:09.783Z,1.00
2018-01-01T20:47:37.324Z,1.13
2018-01-01T20:50:05.700Z,1.20
2018-01-01T20:52:33.288Z,1.30
2018-01-01T20:55:00.830Z,1.30
2018-01-01T20:57:28.369Z,1.10
2018-01-01T20:59:56.771Z,1.23
2018-01-01T21:02:24.303Z,1.00
2018-01-01T21:04:52.600Z,1.00
2018-01-01T21:07:20.180Z,0.83
2018-01-01T21:09:47.796Z,0.80
2018-01-01T21:12:16.107Z,1.00
2018-01-01T21:14:43.729Z,1.33
2018-01-01T21:17:12.099Z,1.60
2018-01-01T21:19:39.663Z,1.10
2018-01-01T21:22:07.213Z,1.20
2018-01-01T21:24:34.833Z,1.10
2018-01-01T21:27:02.475Z,0.93
2018-01-01T21:29:30.058Z,1.20
2018-01-01T21:31:57.581Z,1.40
2018-01-01T21:34:25.160Z,1.00
2018-01-01T21:36:52.724Z,0.83
2018-01-01T21:39:20.257Z,0.90
2018-01-01T21:41:47.803Z,0.80
2018-01-01T21:44:16.064Z,0.90
2018-01-01T21:46:45.172Z,0.87
2018-01-01T21:49:13.466Z,0.90
2018-01-01T21:51:40.966Z,1.10
2018-01-01T21:54:08.600Z,0.90
2018-01-01T21:56:36.144Z,1.10
2018-01-01T21:59:03.690Z,0.90
2018-01-01T22:01:31.232Z,0.90
2018-01-01T22:03:59.545Z,0.93
2018-01-01T22:06:27.054Z,0.80
2018-01-01T22:08:54.556Z,0.90
2018-01-01T22:11:22.080Z,0.90
2018-01-01T22:13:50.331Z,0.90
2018-01-01T22:16:17.882Z,1.30
2018-01-01T22:18:45.394Z,1.10
2018-01-01T22:21:12.896Z,0.80
2018-01-01T22:23:40.420Z,0.93
2018-01-01T22:26:07.912Z,0.80
2018-01-01T22:28:35.457Z,0.80
2018-01-01T22:31:02.998Z,0.70
2018-01-01T22:33:30.503Z,0.60
2018-01-01T22:35:58.005Z,0.60
2018-01-01T22:38:25.541Z,0.80
2018-01-01T22:40:53.789Z,0.67
2018-01-01T22:43:21.304Z,0.80
2018-01-01T22:45:48.853Z,0.60
2018-01-01T22:48:16.343Z,0.70
2018-01-01T22:50:43.852Z,0.70
2018-01-01T22:53:12.130Z,0.70
2018-01-01T22:55:39.625Z,0.60
2018-01-01T22:58:07.141Z,0.70
2018-01-01T23:00:35.430Z,0.70
2018-01-01T23:03:02.973Z,0.70
2018-01-01T23:05:31.240Z,0.70
2018-01-01T23:07:59.495Z,0.70
2018-01-01T23:10:27.044Z,0.70
2018-01-01T23:12:54.587Z,0.73
2018-01-01T23:15:22.080Z,0.70
2018-01-01T23:17:50.385Z,0.90
2018-01-01T23:20:17.886Z,0.80
2018-01-01T23:22:45.384Z,0.70
2018-01-01T23:25:13.685Z,0.70
2018-01-01T23:27:41.197Z,0.80
2018-01-01T23:30:09.506Z,0.70
2018-01-01T23:32:37.016Z,0.70
2018-01-01T23:35:04.515Z,0.77
2018-01-01T23:37:32.100Z,0.83
2018-01-01T23:39:59.588Z,0.80
2018-01-01T23:42:27.105Z,0.80
2018-01-01T23:44:54.592Z,0.80
2018-01-01T23:47:22.120Z,0.90
2018-01-01T23:49:49.632Z,0.90
2018-01-01T23:52:17.885Z,1.10
2018-01-01T23:54:45.403Z,0.90
2018-01-01T23:57:12.915Z,1.00
2018-01-01T23:59:40.435Z,1.00
